createdAt,value
2023-03-06T00:02:25.040Z,4.70
2023-03-06T00:04:53.307Z,4.40
2023-03-06T00:07:20.637Z,4.90
2023-03-06T00:09:47.887Z,5.10
2023-03-06T00:12:15.159Z,5.73
2023-03-06T00:14:42.402Z,4.30
2023-03-06T00:17:09.660Z,4.43
2023-03-06T00:19:36.870Z,4.20
2023-03-06T00:22:04.363Z,4.73
2023-03-06T00:24:31.636Z,4.37
2023-03-06T00:26:59.049Z,4.60
2023-03-06T00:29:26.683Z,5.00
2023-03-06T00:31:54.000Z,5.93
2023-03-06T00:34:21.241Z,5.53
2023-03-06T00:36:48.486Z,4.00
2023-03-06T00:39:15.845Z,6.10
2023-03-06T00:41:44.915Z,4.63
2023-03-06T00:44:14.052Z,6.57
2023-03-06T00:46:41.287Z,4.87
2023-03-06T00:49:08.527Z,5.00
2023-03-06T00:51:35.725Z,4.87
2023-03-06T00:54:03.007Z,4.93
2023-03-06T00:56:30.295Z,6.63
2023-03-06T00:58:57.562Z,4.90
2023-03-06T01:01:25.921Z,5.07
2023-03-06T01:03:53.117Z,4.60
2023-03-06T01:06:21.605Z,4.83
2023-03-06T01:08:48.877Z,7.27
2023-03-06T01:11:16.088Z,5.60
2023-03-06T01:13:45.050Z,5.90
2023-03-06T01:16:15.073Z,5.90
2023-03-06T01:18:42.732Z,5.80
2023-03-06T01:21:10.080Z,5.83
2023-03-06T01:23:37.498Z,6.53
2023-03-06T01:26:04.781Z,5.03
2023-03-06T01:28:33.963Z,6.43
2023-03-06T01:31:02.906Z,5.47
2023-03-06T01:33:30.166Z,4.77
2023-03-06T01:35:57.659Z,5.83
2023-03-06T01:38:24.935Z,5.40
2023-03-06T01:40:52.336Z,5.67
2023-03-06T01:43:28.771Z,6.07
2023-03-06T01:46:14.485Z,5.43
2023-03-06T01:48:41.843Z,5.97
2023-03-06T01:51:09.105Z,5.97
2023-03-06T01:53:36.656Z,6.80
2023-03-06T01:56:03.973Z,5.33
2023-03-06T01:58:31.692Z,6.07
2023-03-06T02:00:58.934Z,5.50
2023-03-06T02:03:27.312Z,7.73
2023-03-06T02:05:54.967Z,6.80
2023-03-06T02:08:23.847Z,7.13
2023-03-06T02:11:09.586Z,6.33
2023-03-06T02:13:37.792Z,7.73
2023-03-06T02:16:05.077Z,10.60
2023-03-06T02:18:33.437Z,6.43
2023-03-06T02:21:03.431Z,6.70
2023-03-06T02:23:49.765Z,7.03
2023-03-06T02:26:18.480Z,7.07
2023-03-06T02:28:46.471Z,6.50
2023-03-06T02:31:21.264Z,5.93
2023-03-06T02:34:00.823Z,6.20
2023-03-06T02:36:29.845Z,7.17
2023-03-06T02:38:57.896Z,6.90
2023-03-06T02:41:25.662Z,7.13
2023-03-06T02:43:53.834Z,7.00
2023-03-06T02:46:21.224Z,7.43
2023-03-06T02:48:48.610Z,8.07
2023-03-06T02:51:15.826Z,7.40
2023-03-06T02:53:44.068Z,6.57
2023-03-06T02:56:11.342Z,7.00
2023-03-06T02:58:38.661Z,7.33
2023-03-06T03:01:06.241Z,7.33
2023-03-06T03:03:34.645Z,6.80
2023-03-06T03:06:02.133Z,7.27
2023-03-06T03:08:33.023Z,7.07
2023-03-06T03:11:03.199Z,6.77
2023-03-06T03:13:37.680Z,7.47
2023-03-06T03:16:07.606Z,7.70
2023-03-06T03:18:35.344Z,7.23
2023-03-06T03:21:03.427Z,8.50
2023-03-06T03:23:30.686Z,7.83
2023-03-06T03:26:06.639Z,7.50
2023-03-06T03:28:34.301Z,8.47
2023-03-06T03:31:09.012Z,8.77
2023-03-06T03:33:36.760Z,7.77
2023-03-06T03:36:05.414Z,7.47
2023-03-06T03:38:35.003Z,8.30
2023-03-06T03:41:02.830Z,8.43
2023-03-06T03:43:30.979Z,7.70
2023-03-06T03:45:59.360Z,10.03
2023-03-06T03:48:26.900Z,8.27
2023-03-06T03:50:54.386Z,10.57
2023-03-06T03:53:24.478Z,7.40
2023-03-06T03:55:51.812Z,9.03
2023-03-06T03:58:21.273Z,7.03
2023-03-06T04:00:50.118Z,8.97
2023-03-06T04:03:17.508Z,10.20
2023-03-06T04:05:46.200Z,8.83
2023-03-06T04:08:16.361Z,7.80
2023-03-06T04:10:46.242Z,7.77
2023-03-06T04:13:15.634Z,7.57
2023-03-06T04:15:45.621Z,7.43
2023-03-06T04:18:12.958Z,7.57
2023-03-06T04:20:41.073Z,7.97
2023-03-06T04:23:08.421Z,8.10
2023-03-06T04:25:35.678Z,8.17
2023-03-06T04:28:05.733Z,8.47
2023-03-06T04:30:33.580Z,8.10
2023-03-06T04:33:00.893Z,7.90
2023-03-06T04:35:28.808Z,7.43
2023-03-06T04:38:03.451Z,8.00
2023-03-06T04:40:32.335Z,7.70
2023-03-06T04:43:00.484Z,8.57
2023-03-06T04:45:28.141Z,8.53
2023-03-06T04:47:55.760Z,9.83
2023-03-06T04:50:23.960Z,8.77
2023-03-06T04:52:51.632Z,9.00
2023-03-06T04:55:18.957Z,8.73
2023-03-06T04:57:47.703Z,10.87
2023-03-06T05:00:19.325Z,7.33
2023-03-06T05:02:46.916Z,8.33
2023-03-06T05:05:14.894Z,8.87
2023-03-06T05:07:42.521Z,7.13
2023-03-06T05:10:13.842Z,7.27
2023-03-06T05:12:41.258Z,8.23
2023-03-06T05:15:09.282Z,8.10
2023-03-06T05:17:36.530Z,10.27
2023-03-06T05:20:06.258Z,9.97
2023-03-06T05:22:34.789Z,7.73
2023-03-06T05:25:02.071Z,18.50
2023-03-06T05:27:29.570Z,10.37
2023-03-06T05:30:05.790Z,8.13
2023-03-06T05:32:35.579Z,7.97
2023-03-06T05:35:03.100Z,8.57
2023-03-06T05:37:30.335Z,7.67
2023-03-06T05:39:57.894Z,8.63
2023-03-06T05:42:26.824Z,9.23
2023-03-06T05:44:55.510Z,9.30
2023-03-06T05:47:22.874Z,8.93
2023-03-06T05:49:50.184Z,8.40
2023-03-06T05:52:17.608Z,8.27
2023-03-06T05:54:45.377Z,10.43
2023-03-06T05:57:12.680Z,9.97
2023-03-06T05:59:39.943Z,9.87
2023-03-06T06:02:08.018Z,9.63
2023-03-06T06:04:35.293Z,8.90
2023-03-06T06:07:02.638Z,10.13
2023-03-06T06:09:30.253Z,10.00
2023-03-06T06:11:58.976Z,10.07
2023-03-06T06:14:26.465Z,30.17
2023-03-06T06:16:54.082Z,11.30
2023-03-06T06:19:21.716Z,10.23
2023-03-06T06:21:50.133Z,9.90
2023-03-06T06:24:18.270Z,9.83
2023-03-06T06:26:46.036Z,8.87
2023-03-06T06:29:13.852Z,9.23
2023-03-06T06:31:41.604Z,9.50
2023-03-06T06:34:09.278Z,9.77
2023-03-06T06:36:36.681Z,10.03
2023-03-06T06:39:23.929Z,12.10
2023-03-06T06:42:09.690Z,9.33
2023-03-06T06:44:40.533Z,10.77
2023-03-06T06:47:25.067Z,11.77
2023-03-06T06:49:53.311Z,11.97
2023-03-06T06:52:20.667Z,11.87
2023-03-06T06:54:48.049Z,10.97
2023-03-06T06:57:15.565Z,9.87
2023-03-06T06:59:42.985Z,11.13
2023-03-06T07:02:12.568Z,11.17
2023-03-06T07:04:52.322Z,10.40
2023-03-06T07:07:25.497Z,12.20
2023-03-06T07:09:54.060Z,9.73
2023-03-06T07:12:21.426Z,10.60
2023-03-06T07:14:48.867Z,11.43
2023-03-06T07:17:16.295Z,10.70
2023-03-06T07:19:43.578Z,11.40
2023-03-06T07:22:10.891Z,10.53
2023-03-06T07:24:38.218Z,11.00
2023-03-06T07:27:05.546Z,11.23
2023-03-06T07:29:34.562Z,9.97
2023-03-06T07:32:02.365Z,9.73
2023-03-06T07:34:29.847Z,9.27
2023-03-06T07:36:57.240Z,10.27
2023-03-06T07:39:24.725Z,12.13
2023-03-06T07:41:52.412Z,11.47
2023-03-06T07:44:19.881Z,11.67
2023-03-06T07:46:47.325Z,10.50
2023-03-06T07:49:15.748Z,10.20
2023-03-06T07:51:43.155Z,10.60
2023-03-06T07:54:10.508Z,10.27
2023-03-06T07:56:37.768Z,12.13
2023-03-06T07:59:05.279Z,12.57
2023-03-06T08:01:33.128Z,9.83
2023-03-06T08:04:02.026Z,11.40
2023-03-06T08:06:29.563Z,11.97
2023-03-06T08:08:57.413Z,10.97
2023-03-06T08:11:25.859Z,10.07
2023-03-06T08:13:53.708Z,11.73
2023-03-06T08:16:25.397Z,11.30
2023-03-06T08:18:52.820Z,10.43
2023-03-06T08:24:09.222Z,12.23
2023-03-06T08:26:36.698Z,10.53
2023-03-06T08:29:05.353Z,11.63
2023-03-06T08:31:32.699Z,12.83
2023-03-06T08:34:01.883Z,11.30
2023-03-06T08:36:29.362Z,10.60
2023-03-06T08:38:56.801Z,9.77
2023-03-06T08:41:24.385Z,10.73
2023-03-06T08:43:51.908Z,11.43
2023-03-06T08:46:20.033Z,11.47
2023-03-06T08:48:48.229Z,9.83
2023-03-06T08:51:16.005Z,18.40
2023-03-06T08:53:44.275Z,15.03
2023-03-06T08:56:31.668Z,11.17
2023-03-06T08:58:59.942Z,12.17
2023-03-06T09:01:31.918Z,10.37
2023-03-06T09:04:00.890Z,9.47
2023-03-06T09:06:30.851Z,11.73
2023-03-06T09:08:58.095Z,11.33
2023-03-06T09:11:26.256Z,11.97
2023-03-06T09:13:53.612Z,11.97
2023-03-06T09:16:20.951Z,14.03
2023-03-06T09:18:50.894Z,11.57
2023-03-06T09:21:18.168Z,14.77
2023-03-06T09:23:45.946Z,11.47
2023-03-06T09:26:13.467Z,11.40
2023-03-06T09:28:40.873Z,11.67
2023-03-06T09:31:26.882Z,11.10
2023-03-06T09:33:54.183Z,12.27
2023-03-06T09:36:22.855Z,10.80
2023-03-06T09:38:50.544Z,13.17
2023-03-06T09:41:29.784Z,12.97
2023-03-06T09:44:04.754Z,12.80
2023-03-06T09:46:38.988Z,12.47
2023-03-06T09:49:18.250Z,13.90
2023-03-06T09:51:59.016Z,11.57
2023-03-06T09:54:34.673Z,12.70
2023-03-06T09:57:01.989Z,14.03
2023-03-06T09:59:29.292Z,12.87
2023-03-06T10:02:02.175Z,11.40
2023-03-06T10:04:33.121Z,13.63
2023-03-06T10:07:02.036Z,12.33
2023-03-06T10:09:52.311Z,12.27
2023-03-06T10:12:24.745Z,12.47
2023-03-06T10:15:10.895Z,13.53
2023-03-06T10:17:41.502Z,12.93
2023-03-06T10:20:25.624Z,10.37
2023-03-06T10:23:01.362Z,11.73
2023-03-06T10:25:33.875Z,12.07
2023-03-06T10:28:17.894Z,12.30
2023-03-06T10:30:45.155Z,12.17
2023-03-06T10:33:27.662Z,13.00
2023-03-06T10:35:56.847Z,13.03
2023-03-06T10:38:37.310Z,12.43
2023-03-06T10:41:04.567Z,13.97
2023-03-06T10:43:33.484Z,13.93
2023-03-06T10:46:21.688Z,12.37
2023-03-06T10:48:57.952Z,14.43
2023-03-06T10:51:25.943Z,14.17
2023-03-06T10:54:00.861Z,15.77
2023-03-06T10:56:28.445Z,13.83
2023-03-06T10:59:09.669Z,15.53
2023-03-06T11:01:37.448Z,13.90
2023-03-06T11:04:17.151Z,15.83
2023-03-06T11:06:45.021Z,14.90
2023-03-06T11:09:23.403Z,13.50
2023-03-06T11:11:51.088Z,14.57
2023-03-06T11:14:19.856Z,15.67
2023-03-06T11:16:54.283Z,14.53
2023-03-06T11:19:24.525Z,14.90
2023-03-06T11:22:05.293Z,15.67
2023-03-06T11:24:41.927Z,14.20
2023-03-06T11:27:18.579Z,15.60
2023-03-06T11:29:48.013Z,16.83
2023-03-06T11:32:17.309Z,15.03
2023-03-06T11:35:03.768Z,16.10
2023-03-06T11:37:31.278Z,17.20
2023-03-06T11:40:01.674Z,18.70
2023-03-06T11:42:30.512Z,17.27
2023-03-06T11:45:16.592Z,20.50
2023-03-06T11:47:50.465Z,18.53
2023-03-06T11:50:23.783Z,18.37
2023-03-06T11:52:56.574Z,17.20
2023-03-06T11:55:42.789Z,19.60
2023-03-06T11:58:23.489Z,18.77
2023-03-06T12:00:59.736Z,16.37
2023-03-06T12:03:34.692Z,19.37
2023-03-06T12:06:05.399Z,16.17
2023-03-06T12:08:32.707Z,17.17
2023-03-06T12:11:06.401Z,16.83
2023-03-06T12:16:38.594Z,16.27
2023-03-06T12:19:11.969Z,17.03
2023-03-06T12:21:52.033Z,15.97
2023-03-06T12:24:23.236Z,22.23
2023-03-06T12:27:10.057Z,17.83
2023-03-06T12:29:37.300Z,16.43
2023-03-06T12:32:16.893Z,17.40
2023-03-06T12:35:05.542Z,16.20
2023-03-06T12:37:42.150Z,17.07
2023-03-06T12:40:22.470Z,15.50
2023-03-06T12:43:10.219Z,19.50
2023-03-06T12:48:23.884Z,16.60
2023-03-06T12:50:51.726Z,14.50
2023-03-06T12:53:24.110Z,14.97
2023-03-06T12:55:52.051Z,15.63
2023-03-06T12:58:31.444Z,16.20
2023-03-06T13:01:06.018Z,14.83
2023-03-06T13:04:08.953Z,15.87
2023-03-06T13:06:50.872Z,16.00
2023-03-06T13:09:21.144Z,14.80
2023-03-06T13:11:48.696Z,13.07
2023-03-06T13:14:25.490Z,16.23
2023-03-06T13:16:53.738Z,13.53
2023-03-06T13:19:22.985Z,14.97
2023-03-06T13:21:56.833Z,14.37
2023-03-06T13:24:25.886Z,15.80
2023-03-06T13:26:58.967Z,17.03
2023-03-06T13:29:38.299Z,17.13
2023-03-06T13:32:20.261Z,17.07
2023-03-06T13:34:50.038Z,17.37
2023-03-06T13:37:17.425Z,15.47
2023-03-06T13:39:57.233Z,18.33
2023-03-06T13:42:38.008Z,17.30
2023-03-06T13:45:28.358Z,15.77
2023-03-06T13:48:21.436Z,16.10
2023-03-06T13:50:45.779Z,16.67
2023-03-06T13:53:31.431Z,18.63
2023-03-06T13:56:01.460Z,17.67
2023-03-06T13:58:34.927Z,20.13
2023-03-06T14:01:18.041Z,17.53
2023-03-06T14:04:04.209Z,34.87
2023-03-06T14:06:37.479Z,21.33
2023-03-06T14:09:12.558Z,25.87
2023-03-06T14:11:41.065Z,34.07
2023-03-06T14:14:11.314Z,20.30
2023-03-06T14:16:49.950Z,28.67
2023-03-06T14:19:18.191Z,21.40
2023-03-06T14:22:03.873Z,32.07
2023-03-06T14:24:36.109Z,18.13
2023-03-06T14:27:03.674Z,22.20
2023-03-06T14:29:33.494Z,19.33
2023-03-06T14:32:02.600Z,16.67
2023-03-06T14:34:31.664Z,15.57
2023-03-06T14:37:03.177Z,15.10
2023-03-06T14:39:34.944Z,18.70
2023-03-06T14:42:17.387Z,15.63
2023-03-06T14:44:44.860Z,17.50
2023-03-06T14:47:18.767Z,16.93
2023-03-06T14:49:46.024Z,16.73
2023-03-06T14:52:18.472Z,19.57
2023-03-06T14:54:46.297Z,17.10
2023-03-06T14:57:15.363Z,18.67
2023-03-06T14:59:45.221Z,15.33
2023-03-06T15:02:15.905Z,15.57
2023-03-06T15:04:45.828Z,16.43
2023-03-06T15:07:22.708Z,15.77
2023-03-06T15:09:51.738Z,13.90
2023-03-06T15:12:22.682Z,13.93
2023-03-06T15:15:00.617Z,15.20
2023-03-06T15:17:27.896Z,16.70
2023-03-06T15:19:56.734Z,13.23
2023-03-06T15:22:38.037Z,11.90
2023-03-06T15:25:08.791Z,10.83
2023-03-06T15:27:36.230Z,9.60
2023-03-06T15:30:12.588Z,10.47
2023-03-06T15:32:42.600Z,10.73
2023-03-06T15:35:25.285Z,12.43
2023-03-06T15:37:53.348Z,11.30
2023-03-06T15:40:22.295Z,11.07
2023-03-06T15:42:50.073Z,11.33
2023-03-06T15:45:19.524Z,11.20
2023-03-06T15:47:48.013Z,12.43
2023-03-06T15:50:20.526Z,9.10
2023-03-06T15:52:48.512Z,10.27
2023-03-06T15:55:17.413Z,9.43
2023-03-06T15:57:49.591Z,9.50
2023-03-06T16:00:36.804Z,11.37
2023-03-06T16:03:04.275Z,10.73
2023-03-06T16:05:31.630Z,10.30
2023-03-06T16:07:58.988Z,12.87
2023-03-06T16:10:28.009Z,10.40
2023-03-06T16:12:56.926Z,12.53
2023-03-06T16:15:28.824Z,11.23
2023-03-06T16:17:56.699Z,10.13
2023-03-06T16:20:25.553Z,11.60
2023-03-06T16:22:56.064Z,11.23
2023-03-06T16:25:24.091Z,14.50
2023-03-06T16:27:58.639Z,11.77
2023-03-06T16:30:29.274Z,14.57
2023-03-06T16:32:57.076Z,13.00
2023-03-06T16:35:24.723Z,12.70
2023-03-06T16:37:52.279Z,11.47
2023-03-06T16:40:19.721Z,13.90
2023-03-06T16:42:47.415Z,13.93
2023-03-06T16:45:15.417Z,11.90
2023-03-06T16:47:43.328Z,14.47
2023-03-06T16:50:21.784Z,14.00
2023-03-06T16:52:49.211Z,15.67
2023-03-06T16:55:16.498Z,13.93
2023-03-06T16:57:43.770Z,17.77
2023-03-06T17:00:11.460Z,14.50
2023-03-06T17:02:39.286Z,13.03
2023-03-06T17:05:07.540Z,12.80
2023-03-06T17:07:35.780Z,10.97
2023-03-06T17:10:03.493Z,10.87
2023-03-06T17:12:30.766Z,12.07
2023-03-06T17:14:58.065Z,11.27
2023-03-06T17:17:25.566Z,12.03
2023-03-06T17:19:53.421Z,12.80
2023-03-06T17:22:21.029Z,12.27
2023-03-06T17:24:50.039Z,13.97
2023-03-06T17:27:17.839Z,12.17
2023-03-06T17:29:45.544Z,11.43
2023-03-06T17:32:12.946Z,11.23
2023-03-06T17:34:40.201Z,13.13
2023-03-06T17:37:07.620Z,11.40
2023-03-06T17:39:35.683Z,11.33
2023-03-06T17:42:03.494Z,13.83
2023-03-06T17:44:31.653Z,11.27
2023-03-06T17:46:59.041Z,11.87
2023-03-06T17:49:26.325Z,12.20
2023-03-06T17:51:54.100Z,11.87
2023-03-06T17:54:21.587Z,11.40
2023-03-06T17:56:49.154Z,11.10
2023-03-06T17:59:16.466Z,33.37
2023-03-06T18:01:45.025Z,13.90
2023-03-06T18:04:12.461Z,13.30
2023-03-06T18:06:39.809Z,13.97
2023-03-06T18:09:07.783Z,12.37
2023-03-06T18:11:53.627Z,12.57
2023-03-06T18:14:20.965Z,11.57
2023-03-06T18:16:48.208Z,13.00
2023-03-06T18:19:16.510Z,14.00
2023-03-06T18:21:44.003Z,12.70
2023-03-06T18:24:12.381Z,14.17
2023-03-06T18:26:44.125Z,13.53
2023-03-06T18:29:11.546Z,11.80
2023-03-06T18:31:39.970Z,12.40
2023-03-06T18:34:12.329Z,12.53
2023-03-06T18:36:40.698Z,12.17
2023-03-06T18:39:09.629Z,12.47
2023-03-06T18:41:37.262Z,10.67
2023-03-06T18:44:05.015Z,12.47
2023-03-06T18:46:33.708Z,11.37
2023-03-06T18:49:01.018Z,10.87
2023-03-06T18:51:28.641Z,12.27
2023-03-06T18:54:02.808Z,11.97
2023-03-06T18:56:30.691Z,13.90
2023-03-06T18:59:01.428Z,12.77
2023-03-06T19:01:30.824Z,12.63
2023-03-06T19:04:02.202Z,13.33
2023-03-06T19:06:29.543Z,12.03
2023-03-06T19:09:01.630Z,12.30
2023-03-06T19:11:29.112Z,12.10
2023-03-06T19:13:56.364Z,13.53
2023-03-06T19:16:25.200Z,15.80
2023-03-06T19:18:55.153Z,12.87
2023-03-06T19:21:23.401Z,11.87
2023-03-06T19:23:50.729Z,13.50
2023-03-06T19:26:18.865Z,12.70
2023-03-06T19:28:47.171Z,12.03
2023-03-06T19:31:14.475Z,13.43
2023-03-06T19:33:42.084Z,14.80
2023-03-06T19:36:10.785Z,13.80
2023-03-06T19:38:38.243Z,13.07
2023-03-06T19:41:06.154Z,12.27
2023-03-06T19:43:33.439Z,13.83
2023-03-06T19:46:00.990Z,14.00
2023-03-06T19:48:28.251Z,12.87
2023-03-06T19:50:55.629Z,13.17
2023-03-06T19:53:23.205Z,12.97
2023-03-06T19:55:50.609Z,13.17
2023-03-06T19:58:17.879Z,13.30
2023-03-06T20:00:45.107Z,15.87
2023-03-06T20:03:12.351Z,14.20
2023-03-06T20:05:46.059Z,14.43
2023-03-06T20:08:13.343Z,13.70
2023-03-06T20:10:40.614Z,14.53
2023-03-06T20:13:07.881Z,13.67
2023-03-06T20:15:36.481Z,13.40
2023-03-06T20:18:04.089Z,14.83
2023-03-06T20:20:31.284Z,14.37
2023-03-06T20:23:04.466Z,13.47
2023-03-06T20:25:32.094Z,13.70
2023-03-06T20:27:59.606Z,13.67
2023-03-06T20:30:36.679Z,13.17
2023-03-06T20:33:05.674Z,13.37
2023-03-06T20:35:33.237Z,13.87
2023-03-06T20:38:01.033Z,15.83
2023-03-06T20:40:28.837Z,17.03
2023-03-06T20:42:56.276Z,15.03
2023-03-06T20:45:23.589Z,15.27
2023-03-06T20:47:50.813Z,14.70
2023-03-06T20:50:18.381Z,15.63
2023-03-06T20:52:45.771Z,16.17
2023-03-06T20:55:18.042Z,15.00
2023-03-06T20:57:47.570Z,13.60
2023-03-06T21:00:15.047Z,13.40
2023-03-06T21:02:42.516Z,14.37
2023-03-06T21:05:10.582Z,17.13
2023-03-06T21:07:38.137Z,15.17
2023-03-06T21:10:05.976Z,15.13
2023-03-06T21:12:33.589Z,16.30
2023-03-06T21:17:46.152Z,17.27
2023-03-06T21:20:13.623Z,15.60
2023-03-06T21:22:41.000Z,16.37
2023-03-06T21:25:08.361Z,15.20
2023-03-06T21:27:35.918Z,15.50
2023-03-06T21:30:03.743Z,16.07
2023-03-06T21:32:31.298Z,15.30
2023-03-06T21:34:58.894Z,14.87
2023-03-06T21:37:26.450Z,17.60
2023-03-06T21:39:54.264Z,15.43
2023-03-06T21:42:21.649Z,15.23
2023-03-06T21:44:48.956Z,16.50
2023-03-06T21:47:16.377Z,16.73
2023-03-06T21:49:43.704Z,15.27
2023-03-06T21:52:10.953Z,15.00
2023-03-06T21:54:38.241Z,18.27
2023-03-06T21:57:05.794Z,15.10
2023-03-06T21:59:33.113Z,14.47
2023-03-06T22:02:00.345Z,14.67
2023-03-06T22:04:27.590Z,17.40
2023-03-06T22:06:54.851Z,14.53
2023-03-06T22:09:22.446Z,18.40
2023-03-06T22:11:49.847Z,17.73
2023-03-06T22:14:17.263Z,18.63
2023-03-06T22:16:44.582Z,16.33
2023-03-06T22:19:11.888Z,15.93
2023-03-06T22:21:39.178Z,14.93
2023-03-06T22:24:06.713Z,16.40
2023-03-06T22:26:33.954Z,16.97
2023-03-06T22:29:01.292Z,18.37
2023-03-06T22:31:29.143Z,16.67
2023-03-06T22:33:57.413Z,15.53
2023-03-06T22:36:25.132Z,18.63
2023-03-06T22:38:57.611Z,16.93
2023-03-06T22:41:28.580Z,18.60
2023-03-06T22:43:57.478Z,16.40
2023-03-06T22:46:24.952Z,17.57
2023-03-06T22:48:52.333Z,16.30
2023-03-06T22:51:20.888Z,17.13
2023-03-06T22:53:48.671Z,16.03
2023-03-06T22:56:17.181Z,15.90
2023-03-06T22:58:44.971Z,15.47
2023-03-06T23:01:13.560Z,17.97
2023-03-06T23:03:42.245Z,17.40
2023-03-06T23:06:17.481Z,17.87
2023-03-06T23:08:46.021Z,16.20
2023-03-06T23:11:14.950Z,18.27
2023-03-06T23:14:01.372Z,16.20
2023-03-06T23:16:47.234Z,17.70
2023-03-06T23:19:33.244Z,17.03
2023-03-06T23:22:19.410Z,19.00
2023-03-06T23:25:06.061Z,17.30
2023-03-06T23:27:33.365Z,19.20
2023-03-06T23:30:00.636Z,16.87
2023-03-06T23:32:28.496Z,17.07
2023-03-06T23:34:55.789Z,16.23
2023-03-06T23:37:23.111Z,16.03
2023-03-06T23:39:50.492Z,17.27
2023-03-06T23:42:17.782Z,16.80
2023-03-06T23:44:45.114Z,17.97
2023-03-06T23:47:12.787Z,17.43
2023-03-06T23:49:40.061Z,16.10
2023-03-06T23:52:07.353Z,16.37
2023-03-06T23:54:35.740Z,18.07
2023-03-06T23:57:02.997Z,16.97
2023-03-06T23:59:33.262Z,17.60
